Terminal Aerodrome Forecast
Issued by NWS

Home | Current Version | Previous Version | Text Only | Print | Product List | Glossary On
Versions: 1 2 3 4 5 6 7 8 9 10 11 12 13 14 15
008
FTUS45 KGJT 221121
TAFASE
TAF
KASE 221121Z 2212/2312 00000KT P6SM VCSH FEW020 SCT035 OVC050
      TEMPO 2212/2214 -SHRA SCT007 BKN012
     FM221400 VRB04KT P6SM SCT025 OVC060
     FM221900 24008KT P6SM VCTS SCT060 OVC100CB
     FM230200 19005KT P6SM VCSH BKN090=

USA.gov is the U.S. government's official web portal to all federal, state and local government web resources and services.